Reklama

Seznam meteostanic a jejich METAR

Vyhledat místa podle abecedy:
A B C D E F G H I J K L M N O P Q R S T U V W X Y Z

Filtrovat:

ID stanice:
a/nebo
Název místa (fulltext):
 
Místo (ID)Naposledy načteno 
Antwerp (EBAW) 15.12.2019 19:50 UTC Zobrazit METAR
EBAW 151950Z 21008KT 180V240 9999 FEW040 07/02 Q1005 NOSIG
Apia (NSFA) 15.12.2019 13:00 UTC Zobrazit METAR
NSFA 151300Z 14003KT 9999 FEW028 25/23 Q1006 NOSIG
Aruba I (TNCA) 15.12.2019 20:00 UTC Zobrazit METAR
TNCA 152000Z 09019KT 9999 FEW025 31/24 Q1011 NOSIG
Ascension I. (FHAW) 15.12.2019 14:50 UTC Zobrazit METAR
FHAW 151450Z 14015KT 9999 FEW026 29/17 Q1013 NOSIG
Ashgabat (UTAA) 15.12.2019 20:00 UTC Zobrazit METAR
UTAA 152000Z 11006KT 4000 BR OVC006 03/02 Q1021 R88/CLRD70 NOSIG
Asmara (HHAS) 03.02.2015 17:00 UTC Zobrazit METAR
HHAS 031700Z 27004KT CAVOK 15/06 Q1028 NOSIG
Astana (UACC) Zatím nenačteno  
Astrakhan (URWA) Zatím nenačteno  
Asuncion (SGAS) 15.12.2019 14:00 UTC Zobrazit METAR
SGAS 151400Z 36011KT 320V030 9999 BKN030 34/22 Q1009
Athens (LGAV) 15.12.2019 19:50 UTC Zobrazit METAR
LGAV 151950Z 25002KT 9999 FEW030 11/08 Q1024 NOSIG
Baghdad (ORBS) 06.06.2012 04:00 UTC  
Bagram (KQSA) 11.05.2016 15:58 UTC Zobrazit METAR
KQSA 111558Z VRB06KT 9999 BKN140 21/09 A3000 RMK AO2A SLP070 T02080091 $
Bahrain (OBBI) 15.12.2019 20:00 UTC Zobrazit METAR
OBBI 152000Z 12010KT 9000 FEW008 22/19 Q1015 TEMPO 34020G35KT 5000 TSRA SCT010 SCT045CB
Baku (UBBB) 15.12.2019 20:00 UTC Zobrazit METAR
UBBB 152000Z 32006KT 9999 OVC025 09/07 Q1019 R88/CLRD// NOSIG
Bamako (GABS) 15.12.2019 20:00 UTC Zobrazit METAR
GABS 152000Z 08007KT 8000 NSC 27/01 Q1013 NOSIG
Bandar Seri Begawan (WBSB) 15.12.2019 20:00 UTC Zobrazit METAR
WBSB 152000Z 11002KT 9999 FEW015 BKN140 27/25 Q1007 NOSIG
Bangkok (VTBD) 15.12.2019 20:00 UTC Zobrazit METAR
VTBD 152000Z 34004KT CAVOK 25/20 Q1011 NOSIG
Bangui (FEFF) 15.12.2019 20:00 UTC Zobrazit METAR
FEFF 152000Z 00000KT 6000 NSC 26/23 Q1011 NOSIG
Banja Luka (LQBK) 15.12.2019 20:00 UTC Zobrazit METAR
LQBK 152000Z 16003KT CAVOK 02/02 Q1017 NOSIG
Banjul (GBYD) 15.12.2019 20:00 UTC Zobrazit METAR
GBYD 152000Z 00000KT CAVOK 22/17 Q1009
Barbados (TBPB) 15.12.2019 20:00 UTC Zobrazit METAR
TBPB 152000Z 09016KT 9999 FEW018 BKN038 29/23 Q1013 NOSIG
Barcelona (LEBL) 15.12.2019 20:00 UTC Zobrazit METAR
LEBL 152000Z 28005KT 240V330 9999 FEW015 12/11 Q1013 NOSIG
Bari (LIBD) 15.12.2019 19:50 UTC Zobrazit METAR
LIBD 151950Z 21006KT CAVOK 11/09 Q1020
Basle-Mulhouse (LFSB) 15.12.2019 20:00 UTC Zobrazit METAR
LFSB 152000Z VRB02KT 9999 FEW015 BKN110 08/07 Q1011 NOSIG
Basse-Terre (TFFB) Zatím nenačteno  
Basseterre (TKPK) 15.12.2019 20:00 UTC Zobrazit METAR
TKPK 152000Z 08016KT 9999 FEW022 29/23 Q1015
Beijing (ZBAA) Zatím nenačteno  
Beirut (OLBA) 15.12.2019 20:00 UTC Zobrazit METAR
OLBA 152000Z 14007KT CAVOK 15/05 Q1020 NOSIG
Belfast (EGAA) 15.12.2019 19:50 UTC Zobrazit METAR
EGAA 151950Z 13005KT 9999 SCT039 02/01 Q0986
Belgrade (LYBE) 15.12.2019 20:00 UTC Zobrazit METAR
LYBE 152000Z 16006KT CAVOK 09/01 Q1018 NOSIG
Belize City (MZBZ) 15.12.2019 20:00 UTC Zobrazit METAR
MZBZ 152000Z 09008KT 9999 SCT024 29/24 A2992 Q1013 NOSIG
Bergen (ENBR) 15.12.2019 12:50 UTC Zobrazit METAR
ENBR 151250Z 13006KT 9999 VCSH FEW012 SCT040 BKN060 04/02 Q0981 NOSIG RMK WIND 1200FT 13016KT
Berlin (EDDT) 15.12.2019 19:50 UTC Zobrazit METAR
EDDT 151950Z 22013KT CAVOK 07/00 Q1005 NOSIG
Bermuda Is (TXKF) 15.12.2019 19:55 UTC Zobrazit METAR
TXKF 151955Z 31011KT 9999 FEW023 FEW040 SCT065 22/17 Q1019
Bern (LSZB) 15.12.2019 19:50 UTC Zobrazit METAR
LSZB 151950Z AUTO 10006KT 9999 FEW130 04/03 Q1011
Billund (EKBI) 15.12.2019 19:50 UTC Zobrazit METAR
EKBI 151950Z 22009KT 9999 SCT024 SCT027 04/03 Q0996
Birmingham (EGBB) 15.12.2019 18:50 UTC Zobrazit METAR
EGBB 151850Z 19007KT 9999 -SHRA BKN036 06/03 Q0995
Bishkek (UAFM) Zatím nenačteno  
Bissau (GGOV) 15.12.2019 19:00 UTC Zobrazit METAR
GGOV 151900Z VRB02KT 6000 NSC 29/19 Q1009 NOSIG
Bogota (SKBO) 15.12.2019 19:00 UTC Zobrazit METAR
SKBO 151900Z 06005KT 9999 BKN020 SCT200 19/10 A3027 NOSIG
Bologna (LIPE) 15.12.2019 19:50 UTC Zobrazit METAR
LIPE 151950Z VRB02KT 8000 NSC 04/03 Q1019
Bordeaux (LFBD) 15.12.2019 20:00 UTC Zobrazit METAR
LFBD 152000Z AUTO 24005KT 190V290 CAVOK 13/09 Q1008 NOSIG
Bornholm (EKRN) 15.12.2019 19:50 UTC Zobrazit METAR
EKRN 151950Z AUTO 25035G46KT 9999 // BKN029/// 07/03 Q0996
Brasilia (SBBR) 15.12.2019 20:00 UTC Zobrazit METAR
SBBR 152000Z 05011KT 9999 BKN040 29/18 Q1017
Bratislava (LZIB) 15.12.2019 20:00 UTC Zobrazit METAR
LZIB 152000Z 03007KT CAVOK 02/01 Q1014 R88/CLRD//
Brazzaville (FCBB) 15.12.2019 12:00 UTC Zobrazit METAR
FCBB 151200Z VRB02KT 8000 SCT017 31/22 Q1012 NOSIG
Bremen (EDDW) 15.12.2019 19:50 UTC Zobrazit METAR
EDDW 151950Z 22014KT 9999 BKN029 07/03 Q1003 NOSIG
Brest (UMBB) Zatím nenačteno  
Brest (LFRB) 15.12.2019 20:00 UTC Zobrazit METAR
LFRB 152000Z AUTO 21017KT 9999 SCT031 SCT039 BKN050 10/06 Q1000 NOSIG
Brno (LKTB) 15.12.2019 20:00 UTC Zobrazit METAR
LKTB 152000Z 32005KT 270V010 9999 SCT047 04/02 Q1014 R27/29//95 NOSIG
Předchozí 1 2 3 4 ... 9 Další
Reklama

Počasí na Váš email

Emaily jsou bez reklamy a bez spamu



Odhlásit newsletter

Reklama


Lunární kalendář

  • 19.12.
  • 26.12.
  • 03.01.
  • 10.01.



Reklama


Reklama
Povinné ručení
Reklama



Reklama